Time;durP1;ratioP1;P1;durP2;ratioP2;P2;SDS_P1;SDS_P2;PMS_P1;PMS_P2;Temp;Humidity;BMP_temperature;BMP_pressure;BME280_temperature;BME280_humidity;BME280_pressure;Samples;Min_cycle;Max_cycle;Signal;HPM_P1;HPM_P2
2023/11/10 00:01:00;;;;;;;1.80;1.70;;;;;;;;;;5121185;27;20562;-67
2023/11/10 00:03:27;;;;;;;1.90;1.63;;;;;;;;;;5127180;27;20460;-66
2023/11/10 00:05:54;;;;;;;1.90;1.80;;;;;;;;;;5116549;27;20504;-66
2023/11/10 00:08:20;;;;;;;2.37;2.10;;;;;;;;;;5120133;27;20450;-66
2023/11/10 00:10:47;;;;;;;2.30;2.10;;;;;;;;;;5121537;27;20439;-66
2023/11/10 00:13:15;;;;;;;4.47;1.93;;;;;;;;;;5115509;27;20461;-67
2023/11/10 00:15:42;;;;;;;1.97;1.77;;;;;;;;;;5110941;27;20450;-67
2023/11/10 00:18:08;;;;;;;2.70;1.63;;;;;;;;;;5119951;27;20516;-67
2023/11/10 00:20:36;;;;;;;2.43;1.77;;;;;;;;;;5119786;27;20474;-68
2023/11/10 00:23:03;;;;;;;2.30;1.90;;;;;;;;;;5120508;27;20454;-66
2023/11/10 00:25:29;;;;;;;3.10;2.10;;;;;;;;;;5118586;27;21005;-66
2023/11/10 00:27:55;;;;;;;4.97;1.90;;;;;;;;;;5119522;27;20514;-65
2023/11/10 00:30:22;;;;;;;2.00;1.77;;;;;;;;;;5116400;27;20577;-66
2023/11/10 00:32:48;;;;;;;4.43;1.50;;;;;;;;;;5120224;27;20454;-66
2023/11/10 00:35:15;;;;;;;3.67;1.73;;;;;;;;;;5119364;27;20482;-65
2023/11/10 00:37:43;;;;;;;3.00;1.60;;;;;;;;;;5116598;27;20479;-65
2023/11/10 00:40:10;;;;;;;3.00;2.10;;;;;;;;;;5116783;27;21080;-65
2023/11/10 00:42:38;;;;;;;2.07;1.87;;;;;;;;;;5116010;27;20490;-66
2023/11/10 00:45:05;;;;;;;2.63;2.37;;;;;;;;;;5121991;27;20458;-65
2023/11/10 00:47:31;;;;;;;1.60;1.50;;;;;;;;;;5121943;27;20457;-66
2023/11/10 00:49:58;;;;;;;2.27;2.07;;;;;;;;;;5113369;27;20466;-65
2023/11/10 00:52:24;;;;;;;2.13;1.93;;;;;;;;;;5121191;27;20454;-65
2023/11/10 00:54:52;;;;;;;3.23;2.40;;;;;;;;;;5122649;27;21130;-65
2023/11/10 00:57:18;;;;;;;2.43;2.10;;;;;;;;;;5118787;27;20492;-65
2023/11/10 00:59:45;;;;;;;3.90;2.43;;;;;;;;;;5132362;27;20907;-65
2023/11/10 01:02:11;;;;;;;3.67;2.90;;;;;;;;;;5120227;27;20525;-66
2023/11/10 01:04:37;;;;;;;4.83;2.03;;;;;;;;;;5121419;27;20506;-65
2023/11/10 01:07:04;;;;;;;3.83;2.47;;;;;;;;;;5118164;27;20486;-65
2023/11/10 01:09:30;;;;;;;4.93;2.40;;;;;;;;;;5123126;27;20891;-65
2023/11/10 01:11:58;;;;;;;1.93;1.73;;;;;;;;;;5126277;27;20478;-65
2023/11/10 01:14:25;;;;;;;4.80;1.97;;;;;;;;;;5125848;27;20479;-65
2023/11/10 01:16:51;;;;;;;4.97;2.10;;;;;;;;;;5123856;27;20508;-65
2023/11/10 01:19:18;;;;;;;6.00;2.23;;;;;;;;;;5108274;27;20500;-65
2023/11/10 01:21:45;;;;;;;2.50;1.70;;;;;;;;;;5109595;28;20490;-65
2023/11/10 01:24:12;;;;;;;3.23;2.20;;;;;;;;;;5113915;27;20454;-65
2023/11/10 01:26:38;;;;;;;2.10;2.00;;;;;;;;;;5119644;27;20509;-66
2023/11/10 01:29:06;;;;;;;2.13;1.97;;;;;;;;;;5119192;27;20950;-66
2023/11/10 01:31:32;;;;;;;2.00;1.90;;;;;;;;;;5122563;27;20523;-65
2023/11/10 01:33:59;;;;;;;3.03;2.07;;;;;;;;;;5122709;27;20446;-65
2023/11/10 01:36:26;;;;;;;2.67;2.30;;;;;;;;;;5122890;27;20545;-65
2023/11/10 01:38:55;;;;;;;3.27;2.30;;;;;;;;;;5118956;27;20480;-65
2023/11/10 01:41:21;;;;;;;3.80;2.20;;;;;;;;;;5120147;27;20485;-65
2023/11/10 01:43:48;;;;;;;3.73;2.10;;;;;;;;;;5112219;27;20442;-64
2023/11/10 01:46:33;;;;;;;2.67;2.40;;;;;;;;;;5123163;27;20907;-64
2023/11/10 01:49:01;;;;;;;2.70;2.10;;;;;;;;;;5116135;27;20470;-65
2023/11/10 01:51:30;;;;;;;2.80;2.00;;;;;;;;;;5116247;27;20554;-64
2023/11/10 01:53:57;;;;;;;2.07;1.77;;;;;;;;;;5113177;27;20513;-65
2023/11/10 01:56:24;;;;;;;3.07;2.10;;;;;;;;;;5125727;27;20459;-66
2023/11/10 01:58:50;;;;;;;3.33;2.17;;;;;;;;;;5125664;27;20875;-66
2023/11/10 02:01:17;;;;;;;6.43;2.47;;;;;;;;;;5110433;27;20518;-65
2023/11/10 02:03:43;;;;;;;3.43;1.90;;;;;;;;;;5111495;27;20472;-65
2023/11/10 02:06:11;;;;;;;4.80;1.57;;;;;;;;;;5114126;28;21230;-65
2023/11/10 02:08:38;;;;;;;2.10;1.73;;;;;;;;;;5117523;28;20447;-65
2023/11/10 02:11:03;;;;;;;1.83;1.70;;;;;;;;;;5120739;28;20462;-65
2023/11/10 02:13:30;;;;;;;8.40;1.90;;;;;;;;;;5131011;28;20456;-66
2023/11/10 02:15:56;;;;;;;2.00;1.80;;;;;;;;;;5117240;28;20440;-66
2023/11/10 02:18:24;;;;;;;1.80;1.70;;;;;;;;;;5116190;28;20450;-66
2023/11/10 02:20:50;;;;;;;4.73;2.00;;;;;;;;;;5117952;28;20899;-65
2023/11/10 02:23:19;;;;;;;1.90;1.60;;;;;;;;;;5120643;28;20461;-66
2023/11/10 02:25:50;;;;;;;2.77;1.53;;;;;;;;;;5115377;28;20462;-65
2023/11/10 02:28:16;;;;;;;4.20;1.83;;;;;;;;;;5115777;28;20464;-65
2023/11/10 02:30:43;;;;;;;2.60;1.70;;;;;;;;;;5111838;28;20585;-66
2023/11/10 02:33:09;;;;;;;2.73;1.47;;;;;;;;;;5119905;28;21125;-65
2023/11/10 02:35:36;;;;;;;1.70;1.60;;;;;;;;;;5121466;28;20477;-65
2023/11/10 02:38:02;;;;;;;5.60;2.57;;;;;;;;;;5112671;28;20485;-65
2023/11/10 02:40:29;;;;;;;5.00;1.57;;;;;;;;;;5118610;28;20483;-66
2023/11/10 02:42:56;;;;;;;3.57;2.10;;;;;;;;;;5115299;28;20473;-66
2023/11/10 02:45:23;;;;;;;4.87;1.60;;;;;;;;;;5121226;28;20485;-66
2023/11/10 02:47:49;;;;;;;7.07;1.70;;;;;;;;;;5119149;28;20538;-66
2023/11/10 02:50:16;;;;;;;2.27;1.57;;;;;;;;;;5115371;28;20512;-65
2023/11/10 02:52:42;;;;;;;1.40;1.30;;;;;;;;;;5121338;28;20484;-65
2023/11/10 02:55:08;;;;;;;1.67;1.57;;;;;;;;;;5118013;28;20470;-65
2023/11/10 02:57:35;;;;;;;5.23;2.20;;;;;;;;;;5109548;28;20518;-65
2023/11/10 03:00:03;;;;;;;3.63;1.67;;;;;;;;;;5122407;28;20556;-65
2023/11/10 03:02:30;;;;;;;2.13;1.93;;;;;;;;;;5118988;28;21071;-65
2023/11/10 03:04:57;;;;;;;5.03;2.10;;;;;;;;;;5119225;28;20438;-65
2023/11/10 03:07:24;;;;;;;3.23;1.60;;;;;;;;;;5126017;28;20465;-65
2023/11/10 03:09:50;;;;;;;6.77;2.90;;;;;;;;;;5112572;28;20876;-65
2023/11/10 03:12:17;;;;;;;3.53;1.80;;;;;;;;;;5117095;28;20478;-65
2023/11/10 03:14:43;;;;;;;2.97;1.70;;;;;;;;;;5119473;28;20476;-65
2023/11/10 03:17:13;;;;;;;4.10;1.83;;;;;;;;;;5114605;28;20458;-65
2023/11/10 03:19:41;;;;;;;4.00;2.23;;;;;;;;;;5112667;28;20461;-65
2023/11/10 03:22:08;;;;;;;3.93;1.90;;;;;;;;;;5121681;27;20526;-65
2023/11/10 03:24:34;;;;;;;3.20;1.37;;;;;;;;;;5116675;27;20456;-65
2023/11/10 03:27:01;;;;;;;2.37;2.17;;;;;;;;;;5119112;27;20504;-65
2023/11/10 03:29:27;;;;;;;2.80;1.90;;;;;;;;;;5121283;27;20484;-65
2023/11/10 03:31:53;;;;;;;2.17;1.50;;;;;;;;;;5122926;27;20477;-66
2023/11/10 03:34:23;;;;;;;2.20;2.00;;;;;;;;;;5128093;27;20485;-66
2023/11/10 03:36:50;;;;;;;1.73;1.63;;;;;;;;;;5125582;27;20458;-66
2023/11/10 03:39:17;;;;;;;2.40;1.77;;;;;;;;;;5124208;27;20451;-65
2023/11/10 03:41:43;;;;;;;3.63;2.10;;;;;;;;;;5116687;27;20512;-65
2023/11/10 03:44:10;;;;;;;4.30;1.83;;;;;;;;;;5127787;27;20486;-67
2023/11/10 03:46:36;;;;;;;1.80;1.67;;;;;;;;;;5118610;27;20581;-65
2023/11/10 03:49:02;;;;;;;5.27;1.53;;;;;;;;;;5121116;27;20469;-65
2023/11/10 03:51:30;;;;;;;2.40;1.87;;;;;;;;;;5126374;27;20518;-65
2023/11/10 03:53:56;;;;;;;1.50;1.40;;;;;;;;;;5104678;27;20561;-65
2023/11/10 03:56:23;;;;;;;1.67;1.50;;;;;;;;;;5116741;27;20534;-65
2023/11/10 03:58:50;;;;;;;2.20;1.70;;;;;;;;;;5122644;27;20493;-65
2023/11/10 04:01:16;;;;;;;3.30;1.77;;;;;;;;;;5125686;27;20550;-66
2023/11/10 04:03:43;;;;;;;1.53;1.40;;;;;;;;;;5118775;27;20488;-65
2023/11/10 04:06:10;;;;;;;2.30;1.63;;;;;;;;;;5123057;27;20954;-65
2023/11/10 04:08:38;;;;;;;1.63;1.53;;;;;;;;;;5121228;27;20482;-65
2023/11/10 04:11:04;;;;;;;3.43;2.63;;;;;;;;;;5121438;27;21009;-65
2023/11/10 04:13:31;;;;;;;2.03;1.40;;;;;;;;;;5125790;27;20518;-65
2023/11/10 04:15:57;;;;;;;2.43;1.70;;;;;;;;;;5122316;27;20478;-66
2023/11/10 04:18:26;;;;;;;2.00;1.40;;;;;;;;;;5122639;27;20469;-66
2023/11/10 04:20:53;;;;;;;1.83;1.73;;;;;;;;;;5115093;27;20477;-66
2023/11/10 04:23:19;;;;;;;2.13;1.60;;;;;;;;;;5117845;27;20839;-66
2023/11/10 04:25:47;;;;;;;4.23;2.13;;;;;;;;;;5119437;27;20458;-67
2023/11/10 04:28:14;;;;;;;4.20;1.63;;;;;;;;;;5118316;27;20465;-66
2023/11/10 04:30:40;;;;;;;2.77;1.80;;;;;;;;;;5110996;27;20516;-66
2023/11/10 04:33:07;;;;;;;2.77;1.50;;;;;;;;;;5117264;27;20486;-66
2023/11/10 04:35:33;;;;;;;2.13;1.93;;;;;;;;;;5117415;27;20450;-66
2023/11/10 04:38:00;;;;;;;3.07;1.57;;;;;;;;;;5119367;28;20442;-66
2023/11/10 04:40:27;;;;;;;1.50;1.40;;;;;;;;;;5122015;27;20480;-66
2023/11/10 04:42:55;;;;;;;5.57;1.90;;;;;;;;;;5122933;27;20492;-66
2023/11/10 04:45:22;;;;;;;2.10;1.50;;;;;;;;;;5127963;27;20449;-66
2023/11/10 04:47:49;;;;;;;4.43;2.00;;;;;;;;;;5116605;27;20540;-65
2023/11/10 04:50:16;;;;;;;3.50;1.80;;;;;;;;;;5117021;27;20456;-66
2023/11/10 04:52:42;;;;;;;2.97;1.80;;;;;;;;;;5129370;27;20465;-66
2023/11/10 04:55:11;;;;;;;5.50;2.00;;;;;;;;;;5121181;27;20547;-66
2023/11/10 04:57:38;;;;;;;3.00;1.90;;;;;;;;;;5111595;27;20523;-66
2023/11/10 05:00:07;;;;;;;1.60;1.50;;;;;;;;;;5114154;27;20541;-66
2023/11/10 05:02:33;;;;;;;1.60;1.50;;;;;;;;;;5118942;28;20485;-67
2023/11/10 05:05:00;;;;;;;2.13;1.90;;;;;;;;;;5116682;27;20438;-67
2023/11/10 05:07:27;;;;;;;1.93;1.57;;;;;;;;;;5112964;28;20446;-66
2023/11/10 05:09:53;;;;;;;2.17;2.07;;;;;;;;;;5119992;27;20458;-66
2023/11/10 05:12:20;;;;;;;2.17;1.63;;;;;;;;;;5119398;27;20453;-67
2023/11/10 05:14:46;;;;;;;2.13;1.40;;;;;;;;;;5118711;28;20442;-66
2023/11/10 05:17:14;;;;;;;2.60;2.07;;;;;;;;;;5128125;27;20489;-66
2023/11/10 05:19:40;;;;;;;5.13;2.10;;;;;;;;;;5117312;27;20450;-66
2023/11/10 05:22:07;;;;;;;2.60;1.87;;;;;;;;;;5113270;27;20509;-65
2023/11/10 05:24:33;;;;;;;3.60;2.00;;;;;;;;;;5112446;28;20450;-66
2023/11/10 05:27:00;;;;;;;2.70;1.90;;;;;;;;;;5115920;27;20485;-66
2023/11/10 05:29:26;;;;;;;3.73;1.80;;;;;;;;;;5107531;28;21073;-66
2023/11/10 05:31:54;;;;;;;2.30;1.70;;;;;;;;;;5113358;27;20480;-66
2023/11/10 05:34:22;;;;;;;2.63;2.03;;;;;;;;;;5104165;28;20451;-66
2023/11/10 05:36:48;;;;;;;1.50;1.40;;;;;;;;;;5117522;27;20526;-66
2023/11/10 05:39:15;;;;;;;3.50;3.20;;;;;;;;;;5114924;28;20435;-66
2023/11/10 05:41:44;;;;;;;1.93;1.43;;;;;;;;;;5114774;27;20450;-65
2023/11/10 05:44:11;;;;;;;2.33;2.17;;;;;;;;;;5122488;27;20446;-66
2023/11/10 05:46:38;;;;;;;6.63;2.13;;;;;;;;;;5113078;28;20454;-65
2023/11/10 05:49:05;;;;;;;3.83;1.47;;;;;;;;;;5118162;27;20455;-66
2023/11/10 05:51:33;;;;;;;3.40;1.70;;;;;;;;;;5122387;27;20463;-66
2023/11/10 05:54:00;;;;;;;3.33;1.67;;;;;;;;;;5115046;27;20475;-66
2023/11/10 05:56:26;;;;;;;3.63;2.57;;;;;;;;;;5120134;27;20484;-66
2023/11/10 05:58:53;;;;;;;4.77;1.37;;;;;;;;;;5125453;27;20473;-66
2023/11/10 06:01:22;;;;;;;4.73;1.77;;;;;;;;;;5104084;28;20474;-66
2023/11/10 06:03:49;;;;;;;4.33;1.70;;;;;;;;;;5112625;28;20581;-67
2023/11/10 06:06:15;;;;;;;2.77;2.10;;;;;;;;;;5118696;27;20462;-69
2023/11/10 06:08:44;;;;;;;1.37;1.27;;;;;;;;;;5112051;28;20478;-70
2023/11/10 06:11:17;;;;;;;2.40;2.20;;;;;;;;;;5099384;28;20474;-65
2023/11/10 06:13:44;;;;;;;3.07;1.60;;;;;;;;;;5121861;28;20504;-65
2023/11/10 06:16:12;;;;;;;4.90;1.40;;;;;;;;;;5116277;28;20481;-64
2023/11/10 06:18:39;;;;;;;1.90;1.80;;;;;;;;;;5113812;28;20526;-65
2023/11/10 06:21:05;;;;;;;2.90;1.30;;;;;;;;;;5107507;28;20470;-66
2023/11/10 06:23:31;;;;;;;2.10;1.60;;;;;;;;;;5109651;28;20554;-64
2023/11/10 06:25:59;;;;;;;3.10;2.27;;;;;;;;;;5105266;28;20447;-65
2023/11/10 06:28:26;;;;;;;1.87;1.50;;;;;;;;;;5110354;28;20697;-64
2023/11/10 06:30:52;;;;;;;3.67;1.87;;;;;;;;;;5113859;28;20482;-64
2023/11/10 06:33:19;;;;;;;5.67;2.77;;;;;;;;;;5104721;28;20442;-64
2023/11/10 06:35:45;;;;;;;2.60;2.30;;;;;;;;;;5113047;28;20481;-64
2023/11/10 06:38:12;;;;;;;4.83;2.40;;;;;;;;;;5112941;28;20507;-63
2023/11/10 06:40:38;;;;;;;5.87;3.00;;;;;;;;;;5111324;28;20478;-64
2023/11/10 06:43:07;;;;;;;4.13;2.57;;;;;;;;;;5112361;28;20483;-65
2023/11/10 06:45:33;;;;;;;4.63;2.13;;;;;;;;;;5117240;28;20460;-65
2023/11/10 06:48:03;;;;;;;4.03;2.73;;;;;;;;;;5111533;28;21063;-65
2023/11/10 06:50:31;;;;;;;2.83;2.27;;;;;;;;;;5117759;28;20450;-66
2023/11/10 06:52:57;;;;;;;2.60;2.40;;;;;;;;;;5111268;28;20460;-67
2023/11/10 06:55:24;;;;;;;5.00;2.97;;;;;;;;;;5111143;28;20471;-66
2023/11/10 06:57:51;;;;;;;5.83;2.27;;;;;;;;;;5122354;27;20457;-66
2023/11/10 07:00:19;;;;;;;2.77;2.40;;;;;;;;;;5109694;27;20492;-66
2023/11/10 07:02:45;;;;;;;3.90;2.70;;;;;;;;;;5114584;28;20518;-67
2023/11/10 07:05:12;;;;;;;4.40;2.23;;;;;;;;;;5123079;27;20446;-66
2023/11/10 07:07:38;;;;;;;2.77;2.53;;;;;;;;;;5119585;27;20458;-66
2023/11/10 07:10:05;;;;;;;2.60;2.40;;;;;;;;;;5103992;28;20462;-66
2023/11/10 07:12:32;;;;;;;4.10;2.80;;;;;;;;;;5118995;27;20450;-66
2023/11/10 07:14:59;;;;;;;2.57;2.37;;;;;;;;;;5119309;27;20446;-66
2023/11/10 07:17:26;;;;;;;4.20;2.90;;;;;;;;;;5115787;28;20496;-63
2023/11/10 07:19:53;;;;;;;6.37;2.93;;;;;;;;;;5105410;28;20494;-65
2023/11/10 07:22:19;;;;;;;4.50;3.20;;;;;;;;;;5120634;27;20536;-65
2023/11/10 07:24:46;;;;;;;3.20;2.50;;;;;;;;;;5127527;27;20452;-65
2023/11/10 07:30:03;;;;;;;4.60;2.63;;;;;;;;;;5119005;28;21301;-65
2023/11/10 07:32:31;;;;;;;4.10;2.50;;;;;;;;;;5117924;27;20469;-64
2023/11/10 07:34:58;;;;;;;4.83;2.97;;;;;;;;;;5125775;27;21029;-63
2023/11/10 07:37:25;;;;;;;2.93;2.37;;;;;;;;;;5121713;27;20457;-61
2023/11/10 07:39:51;;;;;;;3.93;2.90;;;;;;;;;;5115499;27;20458;-63
2023/11/10 07:42:18;;;;;;;7.37;3.43;;;;;;;;;;5120318;27;20493;-64
2023/11/10 07:44:44;;;;;;;4.43;2.93;;;;;;;;;;5116382;28;20470;-63
2023/11/10 07:47:10;;;;;;;3.00;2.80;;;;;;;;;;5113711;27;20451;-62
2023/11/10 07:49:38;;;;;;;8.33;3.40;;;;;;;;;;5107369;28;20494;-66
2023/11/10 07:52:06;;;;;;;4.10;2.77;;;;;;;;;;5106704;28;20475;-63
2023/11/10 07:54:33;;;;;;;4.87;3.00;;;;;;;;;;5123600;27;20502;-63
2023/11/10 07:57:00;;;;;;;7.40;3.20;;;;;;;;;;5110365;27;20904;-65
2023/11/10 07:59:27;;;;;;;3.20;2.90;;;;;;;;;;5121343;27;20450;-63
2023/11/10 08:01:54;;;;;;;3.93;2.77;;;;;;;;;;5120778;27;20466;-64
2023/11/10 08:04:20;;;;;;;3.60;2.83;;;;;;;;;;5116671;27;20485;-61
2023/11/10 08:06:48;;;;;;;5.97;3.37;;;;;;;;;;5116062;28;20443;-63
2023/11/10 08:09:15;;;;;;;5.33;2.80;;;;;;;;;;5115001;28;20454;-63
2023/11/10 08:11:42;;;;;;;3.63;3.30;;;;;;;;;;5116561;28;20593;-63
2023/11/10 08:14:08;;;;;;;6.00;3.40;;;;;;;;;;5106345;28;20454;-61
2023/11/10 08:16:34;;;;;;;5.53;2.97;;;;;;;;;;5112175;28;20465;-63
2023/11/10 08:19:02;;;;;;;4.07;2.87;;;;;;;;;;5110978;27;20499;-61
2023/11/10 08:21:29;;;;;;;4.43;3.33;;;;;;;;;;5116763;28;20453;-63
2023/11/10 08:23:56;;;;;;;3.77;3.10;;;;;;;;;;5120375;27;20485;-62
2023/11/10 08:26:23;;;;;;;3.80;3.33;;;;;;;;;;5111026;27;20458;-64
2023/11/10 08:28:49;;;;;;;3.70;3.30;;;;;;;;;;5116275;27;20465;-62
2023/11/10 08:31:16;;;;;;;4.10;3.67;;;;;;;;;;5115267;28;20478;-61
2023/11/10 08:33:42;;;;;;;4.60;3.10;;;;;;;;;;5113253;27;20483;-61
2023/11/10 08:36:10;;;;;;;4.03;2.83;;;;;;;;;;5108243;27;20481;-61
2023/11/10 08:38:36;;;;;;;3.77;3.47;;;;;;;;;;5110790;28;20451;-63
2023/11/10 08:41:04;;;;;;;4.63;3.13;;;;;;;;;;5116418;28;20438;-63
2023/11/10 08:43:30;;;;;;;3.90;3.30;;;;;;;;;;5116349;28;20486;-63
2023/11/10 08:45:57;;;;;;;3.50;2.70;;;;;;;;;;5109312;28;20450;-62
2023/11/10 08:48:23;;;;;;;4.77;3.90;;;;;;;;;;5114434;28;20446;-61
2023/11/10 08:50:49;;;;;;;4.00;2.90;;;;;;;;;;5111139;27;20461;-62
2023/11/10 08:53:16;;;;;;;6.20;3.17;;;;;;;;;;5106712;27;20452;-61
2023/11/10 08:55:43;;;;;;;4.63;3.10;;;;;;;;;;5110376;28;20431;-62
2023/11/10 08:58:11;;;;;;;5.63;3.00;;;;;;;;;;5115920;27;20469;-64
2023/11/10 09:00:38;;;;;;;4.40;2.90;;;;;;;;;;5114138;28;20446;-63
2023/11/10 09:03:04;;;;;;;2.90;2.53;;;;;;;;;;5109855;28;20548;-63
2023/11/10 09:05:30;;;;;;;5.03;3.97;;;;;;;;;;5115052;27;20535;-63
2023/11/10 09:07:57;;;;;;;3.27;3.07;;;;;;;;;;5119172;28;20741;-65
2023/11/10 09:10:23;;;;;;;7.93;3.73;;;;;;;;;;5105981;28;20435;-63
2023/11/10 09:12:50;;;;;;;4.83;3.00;;;;;;;;;;5109910;27;20590;-64
2023/11/10 09:15:18;;;;;;;3.37;3.07;;;;;;;;;;5099222;28;20438;-63
2023/11/10 09:17:45;;;;;;;5.70;4.30;;;;;;;;;;5127883;27;20462;-65
2023/11/10 09:20:13;;;;;;;7.63;3.70;;;;;;;;;;5115586;28;20451;-63
2023/11/10 09:22:39;;;;;;;3.97;3.60;;;;;;;;;;5118665;27;20504;-65
2023/11/10 09:25:09;;;;;;;7.20;3.80;;;;;;;;;;5116194;28;20426;-65
2023/11/10 09:27:35;;;;;;;7.57;3.93;;;;;;;;;;5111001;28;20466;-65
2023/11/10 09:30:02;;;;;;;5.73;3.60;;;;;;;;;;5118468;28;20470;-64
2023/11/10 09:32:30;;;;;;;4.63;3.43;;;;;;;;;;5107817;28;20486;-65
2023/11/10 09:34:57;;;;;;;6.27;3.73;;;;;;;;;;5120301;27;20934;-64
2023/11/10 09:37:23;;;;;;;4.00;3.60;;;;;;;;;;5118617;28;20461;-66
2023/11/10 09:39:50;;;;;;;4.20;3.90;;;;;;;;;;5110171;28;20447;-66
2023/11/10 09:42:17;;;;;;;5.67;5.23;;;;;;;;;;5118099;27;20472;-66
2023/11/10 09:44:52;;;;;;;3.70;3.43;;;;;;;;;;5113804;28;20550;-66
2023/11/10 09:47:19;;;;;;;3.83;3.43;;;;;;;;;;5112595;28;20458;-63
2023/11/10 09:49:47;;;;;;;4.50;4.10;;;;;;;;;;5112270;28;20465;-65
2023/11/10 09:52:15;;;;;;;5.07;4.03;;;;;;;;;;5116724;27;20554;-65
2023/11/10 09:54:44;;;;;;;4.70;4.30;;;;;;;;;;5106629;28;20435;-64
2023/11/10 09:57:10;;;;;;;4.97;4.70;;;;;;;;;;5105651;28;20460;-65
2023/11/10 09:59:38;;;;;;;4.50;4.20;;;;;;;;;;5119476;27;20465;-65
2023/11/10 10:02:05;;;;;;;4.57;4.27;;;;;;;;;;5106350;28;20779;-66
2023/11/10 10:04:31;;;;;;;4.50;4.10;;;;;;;;;;5117714;28;20963;-65
2023/11/10 10:06:59;;;;;;;4.50;4.30;;;;;;;;;;5114977;27;20882;-66
2023/11/10 10:09:27;;;;;;;4.77;4.47;;;;;;;;;;5114744;28;20485;-65
2023/11/10 10:11:55;;;;;;;4.77;4.37;;;;;;;;;;5106860;28;20459;-63
2023/11/10 10:14:22;;;;;;;4.57;4.17;;;;;;;;;;5114995;28;20468;-62
2023/11/10 10:16:52;;;;;;;4.63;4.33;;;;;;;;;;5111313;28;20493;-63
2023/11/10 10:19:21;;;;;;;4.63;4.23;;;;;;;;;;5115833;28;20446;-62
2023/11/10 10:21:48;;;;;;;5.03;4.37;;;;;;;;;;5121470;28;20453;-62
2023/11/10 10:24:16;;;;;;;4.50;3.90;;;;;;;;;;5106094;28;20483;-63
2023/11/10 10:26:42;;;;;;;5.03;4.53;;;;;;;;;;5109129;28;20515;-64
2023/11/10 10:29:10;;;;;;;7.53;4.87;;;;;;;;;;5115801;28;20445;-63
2023/11/10 10:31:37;;;;;;;5.10;4.70;;;;;;;;;;5122907;27;20482;-66
2023/11/10 10:34:05;;;;;;;4.23;3.93;;;;;;;;;;5111184;27;20485;-65
2023/11/10 10:36:32;;;;;;;4.33;4.03;;;;;;;;;;5124476;27;20450;-64
2023/11/10 10:39:01;;;;;;;5.40;4.90;;;;;;;;;;5120991;28;20460;-65
2023/11/10 10:41:30;;;;;;;5.60;4.00;;;;;;;;;;5124031;27;20518;-65
2023/11/10 10:43:56;;;;;;;7.93;7.23;;;;;;;;;;5120099;27;20967;-64
2023/11/10 10:46:23;;;;;;;4.37;4.07;;;;;;;;;;5112119;27;20637;-64
2023/11/10 10:48:50;;;;;;;4.70;4.37;;;;;;;;;;5116197;28;20445;-64
2023/11/10 10:51:18;;;;;;;5.17;4.67;;;;;;;;;;5122007;27;20502;-62
2023/11/10 10:53:46;;;;;;;11.17;5.50;;;;;;;;;;5115541;28;20526;-63
2023/11/10 10:56:14;;;;;;;4.83;3.93;;;;;;;;;;5110274;27;21103;-62
2023/11/10 10:58:42;;;;;;;5.30;4.80;;;;;;;;;;5119534;27;20461;-64
2023/11/10 11:01:09;;;;;;;5.47;3.90;;;;;;;;;;5122390;27;20442;-63
2023/11/10 11:03:43;;;;;;;4.87;3.63;;;;;;;;;;5121541;27;20520;-63
2023/11/10 11:06:20;;;;;;;4.47;3.93;;;;;;;;;;5116488;28;20546;-62
2023/11/10 11:08:58;;;;;;;4.50;4.00;;;;;;;;;;5117304;27;20442;-62
2023/11/10 11:11:31;;;;;;;4.00;3.70;;;;;;;;;;5123733;28;20458;-62
2023/11/10 11:14:12;;;;;;;4.00;3.70;;;;;;;;;;5115676;28;20455;-63
2023/11/10 11:16:48;;;;;;;4.00;3.60;;;;;;;;;;5122636;27;20478;-62
2023/11/10 11:19:20;;;;;;;6.23;5.83;;;;;;;;;;5117858;28;20501;-64
2023/11/10 11:21:49;;;;;;;3.30;3.00;;;;;;;;;;5113025;28;20480;-64
2023/11/10 11:24:17;;;;;;;4.20;3.63;;;;;;;;;;5121956;27;20482;-63
2023/11/10 11:26:52;;;;;;;4.13;3.73;;;;;;;;;;5121007;27;20505;-66
2023/11/10 11:29:20;;;;;;;3.50;3.20;;;;;;;;;;5121742;28;20469;-62
2023/11/10 11:31:47;;;;;;;2.80;2.60;;;;;;;;;;5119824;28;20502;-61
2023/11/10 11:34:14;;;;;;;2.70;2.50;;;;;;;;;;5127589;27;20956;-64
2023/11/10 11:36:43;;;;;;;2.90;2.70;;;;;;;;;;5119754;28;20902;-64
2023/11/10 11:39:15;;;;;;;3.17;2.87;;;;;;;;;;5120035;27;20453;-63
2023/11/10 11:41:41;;;;;;;3.63;3.23;;;;;;;;;;5116477;28;20446;-62
2023/11/10 11:44:08;;;;;;;3.33;3.03;;;;;;;;;;5116169;27;20488;-62
2023/11/10 11:46:39;;;;;;;3.37;3.07;;;;;;;;;;5114133;28;20489;-64
2023/11/10 11:49:06;;;;;;;3.07;2.80;;;;;;;;;;5126973;27;20910;-65
2023/11/10 11:51:34;;;;;;;3.43;3.03;;;;;;;;;;5110653;27;20460;-63
2023/11/10 11:54:00;;;;;;;2.67;2.43;;;;;;;;;;5116824;28;20506;-64
2023/11/10 11:56:27;;;;;;;3.40;2.63;;;;;;;;;;5113017;27;20478;-66
2023/11/10 11:58:53;;;;;;;3.73;2.60;;;;;;;;;;5119272;27;20458;-63
2023/11/10 12:01:20;;;;;;;4.40;4.10;;;;;;;;;;5114401;28;20439;-63
2023/11/10 12:03:48;;;;;;;3.40;3.10;;;;;;;;;;5118938;27;20458;-63
2023/11/10 12:06:15;;;;;;;3.80;3.50;;;;;;;;;;5113574;27;20473;-65
2023/11/10 12:08:43;;;;;;;4.23;3.90;;;;;;;;;;5119454;28;20438;-62
2023/11/10 12:11:11;;;;;;;5.27;4.40;;;;;;;;;;5120323;27;20454;-63
2023/11/10 12:13:37;;;;;;;3.63;3.33;;;;;;;;;;5110247;27;20458;-63
2023/11/10 12:16:04;;;;;;;3.83;3.40;;;;;;;;;;5106725;28;21005;-62
2023/11/10 12:18:31;;;;;;;3.53;3.17;;;;;;;;;;5109032;28;20517;-63
2023/11/10 12:20:59;;;;;;;3.43;3.23;;;;;;;;;;5116068;27;20480;-64
2023/11/10 12:23:26;;;;;;;3.10;2.90;;;;;;;;;;5113780;28;20457;-66
2023/11/10 12:25:53;;;;;;;6.17;4.03;;;;;;;;;;5117758;27;20471;-63
2023/11/10 12:28:19;;;;;;;5.10;3.97;;;;;;;;;;5119755;27;20460;-65
2023/11/10 12:30:47;;;;;;;3.50;3.27;;;;;;;;;;5109275;28;20497;-63
2023/11/10 12:33:13;;;;;;;4.43;3.80;;;;;;;;;;5124846;27;20880;-63
2023/11/10 12:35:40;;;;;;;7.90;4.33;;;;;;;;;;5111866;27;20494;-63
2023/11/10 12:38:08;;;;;;;4.17;3.87;;;;;;;;;;5114786;27;20453;-62
2023/11/10 12:40:37;;;;;;;5.97;3.87;;;;;;;;;;5114251;28;20500;-63
2023/11/10 12:43:03;;;;;;;3.27;3.07;;;;;;;;;;5116744;28;20458;-63
2023/11/10 12:45:30;;;;;;;5.40;3.50;;;;;;;;;;5119582;28;20485;-63
2023/11/10 12:47:59;;;;;;;7.53;3.93;;;;;;;;;;5126517;27;20454;-66
2023/11/10 12:50:28;;;;;;;4.07;3.13;;;;;;;;;;5121209;27;20465;-65
2023/11/10 12:52:54;;;;;;;2.70;2.50;;;;;;;;;;5120010;28;20481;-62
2023/11/10 12:55:23;;;;;;;3.13;2.50;;;;;;;;;;5118334;28;20487;-63
2023/11/10 12:57:49;;;;;;;10.20;3.37;;;;;;;;;;5107540;27;21001;-64
2023/11/10 13:00:16;;;;;;;5.33;3.93;;;;;;;;;;5117641;27;20466;-64
2023/11/10 13:02:43;;;;;;;6.47;4.20;;;;;;;;;;5101361;28;20956;-68
2023/11/10 13:05:10;;;;;;;3.40;3.20;;;;;;;;;;5114215;27;20514;-66
2023/11/10 13:07:36;;;;;;;4.50;3.50;;;;;;;;;;5118842;27;20540;-65
2023/11/10 13:10:06;;;;;;;3.70;3.50;;;;;;;;;;5108296;28;20446;-65
2023/11/10 13:12:34;;;;;;;5.33;2.90;;;;;;;;;;5111561;28;20473;-64
2023/11/10 13:15:00;;;;;;;3.53;3.23;;;;;;;;;;5118951;28;20438;-64
2023/11/10 13:17:27;;;;;;;3.43;3.17;;;;;;;;;;5113401;27;20851;-63
2023/11/10 13:19:54;;;;;;;6.60;3.07;;;;;;;;;;5118049;27;20464;-63
2023/11/10 13:22:20;;;;;;;3.13;2.93;;;;;;;;;;5120675;27;20458;-65
2023/11/10 13:24:50;;;;;;;3.57;2.83;;;;;;;;;;5118858;28;20473;-65
2023/11/10 13:27:16;;;;;;;10.37;3.13;;;;;;;;;;5115077;27;20536;-65
2023/11/10 13:29:45;;;;;;;3.60;2.13;;;;;;;;;;5120688;27;20451;-63
2023/11/10 13:32:13;;;;;;;5.33;2.53;;;;;;;;;;5119426;27;21001;-63
2023/11/10 13:34:41;;;;;;;3.50;2.60;;;;;;;;;;5116908;28;20447;-62
2023/11/10 13:37:08;;;;;;;3.17;2.10;;;;;;;;;;5127233;27;20492;-62
2023/11/10 13:39:35;;;;;;;4.07;2.40;;;;;;;;;;5113731;28;20480;-62
2023/11/10 13:42:01;;;;;;;2.80;1.90;;;;;;;;;;5110813;28;20451;-61
2023/11/10 13:44:28;;;;;;;3.30;2.30;;;;;;;;;;5113153;27;20477;-62
2023/11/10 13:46:56;;;;;;;3.50;2.00;;;;;;;;;;5103956;28;20519;-62
2023/11/10 13:49:22;;;;;;;6.60;2.50;;;;;;;;;;5118825;27;20454;-61
2023/11/10 13:51:49;;;;;;;5.03;3.07;;;;;;;;;;5120269;27;20450;-62
2023/11/10 13:54:15;;;;;;;3.93;3.03;;;;;;;;;;5118527;27;20456;-63
2023/11/10 13:56:42;;;;;;;2.60;2.40;;;;;;;;;;5122296;27;20456;-63
2023/11/10 13:59:08;;;;;;;3.90;3.10;;;;;;;;;;5111355;28;20446;-63
2023/11/10 14:01:34;;;;;;;3.30;3.10;;;;;;;;;;5117900;28;20487;-63
2023/11/10 14:04:02;;;;;;;3.20;2.90;;;;;;;;;;5120084;27;20513;-62
2023/11/10 14:06:30;;;;;;;3.00;2.80;;;;;;;;;;5123442;28;20469;-62
2023/11/10 14:08:56;;;;;;;3.60;3.30;;;;;;;;;;5108139;28;20450;-61
2023/11/10 14:11:25;;;;;;;3.50;3.20;;;;;;;;;;5120091;27;20491;-61
2023/11/10 14:13:52;;;;;;;3.10;2.80;;;;;;;;;;5117574;28;20454;-62
2023/11/10 14:16:18;;;;;;;6.17;2.97;;;;;;;;;;5120653;27;20468;-61
2023/11/10 14:18:45;;;;;;;7.27;4.00;;;;;;;;;;5102540;28;21035;-63
2023/11/10 14:21:14;;;;;;;8.47;3.43;;;;;;;;;;5114364;28;20527;-61
2023/11/10 14:23:42;;;;;;;5.63;3.40;;;;;;;;;;5116769;28;20468;-61
2023/11/10 14:26:08;;;;;;;3.70;3.30;;;;;;;;;;5110281;28;20964;-61
2023/11/10 14:28:34;;;;;;;3.53;3.13;;;;;;;;;;5108446;28;20998;-61
2023/11/10 14:31:01;;;;;;;3.33;3.03;;;;;;;;;;5111456;28;20490;-62
2023/11/10 14:33:29;;;;;;;7.70;2.37;;;;;;;;;;5119055;28;20468;-61
2023/11/10 14:35:56;;;;;;;4.03;2.30;;;;;;;;;;5119667;28;20531;-62
2023/11/10 14:38:24;;;;;;;2.80;2.40;;;;;;;;;;5117019;28;20483;-63
2023/11/10 14:40:52;;;;;;;4.47;2.33;;;;;;;;;;5108402;28;20491;-62
2023/11/10 14:43:19;;;;;;;2.30;2.20;;;;;;;;;;5107477;28;20884;-62
2023/11/10 14:45:47;;;;;;;4.07;2.40;;;;;;;;;;5115622;28;20501;-64